Pagrindinis puslapis
METAR-TAF:

METAR-TAF

Oro uostai :

Stambulas, Turkija

platuma: 41-16-31N, ilguma: 028-45-07E, Aukštis: 99 m

Dabartinis oras

Ataskaita buvo paskelbta 50 minutes, ne 20:50 UTC
Vėjas 4 kt iš Pietvakarių
Temperatūra 21°C
Drėgmė 56%
Slėgis 1013 hPa
Matomumas 10 km arba daugiau
nėra debesų žemiau 1500 m ir nėra kamuolinių lietaus debesų

METAR: LTFM 052050Z 22004KT CAVOK 21/12 Q1013 NOSIG RMK RWY17L 25006KT RWY34L 24007KT RWY16R 24006KT

Laikas: 00:40 (21:40 UTC)

Prognozė

Ataskaita buvo paskelbta 5 valandos ir 0 minutes, ne 16:40 UTC
Prognozė galioja nuo 05 metu 18 UTC su 06 metu 24 UTC
Vėjas 8 kt iš Pietų
Matomumas 10 km arba daugiau
nėra debesų žemiau 1500 m ir nėra kamuolinių lietaus debesų
Tapsmas
nuo 06 metu 06 UTC su 06 metu 09 UTC
Vėjas 12 kt iš Rytų
Tapsmas
nuo 06 metu 17 UTC su 06 metu 20 UTC
Vėjas 8 kt iš Vakarų/Šiaurės Vakarų

TAF: LTFM 051640Z 0518/0624 18008KT CAVOK BECMG 0606/0609 08012KT BECMG 0617/0620 30008KT

Orai ataskaitas ir orų prognozės (METAR, TAF).

turimą stotys yra geltonos ir raudonos taškus žemėlapyje.

Perkelti pele per norėdami pamatyti stoties vardą.

Tada spustelėkite, norėdami matyti oro stebėjimo ir prognozės.

Norėdami pakeisti žemėlapį: spustelėkite ant žalios mygtukų su juodo kryžiaus žemyn,; žalią mygtuką su brūkšneliu, jei norite nutolinti; arba žalių rodyklių gretimoms žemėlapius.


METAR-TAF: